PADE

Details ICAO PADE (DRG)
Name DEERING
Region USA (Alaska)
Timezone America/Nome (UTC-8.0)
Plans Departing 0
Arriving 1
Stats Elevation 21 ft / 6 m (AMSL)
Location 66.069149° -162.767028°
Runways 2
Magnetic Variation 11.235° E
Sunrise 2018-05-25 12:30:40 UTC / 2018-05-25 04:30:40 Local
Sunset 2018-05-26 09:08:18 UTC / 2018-05-26 01:08:18 Local
Advertisement - Login to hide

Runways

ID Width Length Bearing (true) Bearing (mag) Surface Threshold Offset Overrun Length
02 75 ft / 23 m 3,323 ft / 1,013 m 37.90° 26.66° Gravel 0 ft / 0 m 0 ft / 0 m
11 75 ft / 23 m 2,663 ft / 812 m 126.50° 115.26° Gravel 0 ft / 0 m 0 ft / 0 m
20 75 ft / 23 m 3,323 ft / 1,013 m 217.91° 206.67° Gravel 0 ft / 0 m 0 ft / 0 m
29 75 ft / 23 m 2,663 ft / 812 m 306.51° 295.27° Gravel 0 ft / 0 m 0 ft / 0 m

Map

Weather


0- 5 10 15 20 25 30 35+ Temperature / ° C

Clouds and Precipitation
Forecast for 2018-05-25 18:00 UTC. Updated 5 hours ago

Ground ~20,000 ft ~40,000 ft Winds

METAR

PADE 252153Z AUTO 28007KT 10SM OVC021 03/M02 A2976 RMK AO2 SLP076 T00331017 TSNO $

TAF

Not found

Frequencies

Recorded 135.50 MHz ASOS
Approach 119.20 MHz ANCHORAGE CNTR
Unicom 122.90 MHz CTAF
Warning: Do not use this data for real-world aviation or navigation. No guarantee of current accuracy is given.